createdAt,value
2022-12-14T00:01:41.725Z,43.77
2022-12-14T00:04:12.146Z,38.40
2022-12-14T00:06:39.182Z,47.17
2022-12-14T00:09:06.412Z,42.40
2022-12-14T00:11:34.555Z,42.60
2022-12-14T00:14:03.239Z,40.50
2022-12-14T00:16:33.091Z,47.53
2022-12-14T00:19:01.928Z,44.60
2022-12-14T00:21:29.381Z,46.13
2022-12-14T00:23:58.983Z,44.83
2022-12-14T00:26:33.867Z,44.60
2022-12-14T00:29:02.594Z,46.90
2022-12-14T00:31:31.866Z,45.13
2022-12-14T00:33:59.412Z,46.47
2022-12-14T00:36:26.499Z,42.33
2022-12-14T00:38:53.557Z,46.73
2022-12-14T00:41:20.640Z,45.70
2022-12-14T00:43:49.466Z,39.90
2022-12-14T00:46:17.111Z,45.37
2022-12-14T00:48:44.362Z,46.50
2022-12-14T00:51:11.489Z,49.47
2022-12-14T00:53:38.549Z,44.23
2022-12-14T00:56:08.767Z,42.63
2022-12-14T00:58:36.050Z,45.40
2022-12-14T01:01:05.855Z,45.20
2022-12-14T01:03:33.675Z,43.90
2022-12-14T01:06:01.544Z,46.13
2022-12-14T01:08:35.749Z,42.93
2022-12-14T01:11:07.772Z,44.53
2022-12-14T01:13:36.479Z,43.97
2022-12-14T01:16:14.687Z,45.10
2022-12-14T01:18:43.275Z,49.80
2022-12-14T01:21:19.107Z,48.87
2022-12-14T01:23:47.833Z,43.03
2022-12-14T01:26:16.865Z,50.00
2022-12-14T01:28:44.731Z,54.23
2022-12-14T01:31:14.725Z,48.23
2022-12-14T01:33:42.404Z,47.70
2022-12-14T01:36:12.234Z,48.33
2022-12-14T01:38:39.442Z,47.03
2022-12-14T01:41:07.767Z,45.07
2022-12-14T01:43:52.623Z,46.10
2022-12-14T01:46:35.987Z,47.33
2022-12-14T01:49:15.088Z,43.83
2022-12-14T01:51:48.096Z,46.83
2022-12-14T01:54:16.205Z,55.97
2022-12-14T01:56:44.946Z,51.80
2022-12-14T01:59:18.467Z,52.20
2022-12-14T02:01:46.607Z,48.70
2022-12-14T02:04:17.444Z,51.70
2022-12-14T02:06:46.275Z,53.00
2022-12-14T02:09:18.000Z,45.57
2022-12-14T02:12:19.157Z,43.00
2022-12-14T02:14:47.520Z,52.27
2022-12-14T02:17:16.004Z,52.70
2022-12-14T02:19:49.435Z,50.90
2022-12-14T02:22:52.479Z,44.13
2022-12-14T02:26:01.545Z,46.57
2022-12-14T02:29:23.651Z,49.83
2022-12-14T02:32:17.863Z,49.17
2022-12-14T02:35:25.595Z,52.23
2022-12-14T02:38:27.286Z,48.73
2022-12-14T02:41:39.874Z,49.17
2022-12-14T02:44:49.089Z,46.33
2022-12-14T02:47:32.501Z,52.60
2022-12-14T02:50:22.255Z,47.13
2022-12-14T02:53:03.659Z,48.87
2022-12-14T02:55:48.886Z,53.07
2022-12-14T02:58:48.968Z,54.97
2022-12-14T03:01:19.996Z,51.07
2022-12-14T03:03:47.156Z,45.37
2022-12-14T03:06:30.547Z,52.10
2022-12-14T03:09:07.942Z,53.70
2022-12-14T03:11:46.052Z,50.63
2022-12-14T03:14:41.778Z,55.47
2022-12-14T03:17:19.392Z,56.00
2022-12-14T03:20:13.143Z,48.30
2022-12-14T03:22:46.611Z,55.63
2022-12-14T03:25:22.274Z,49.67
2022-12-14T03:27:59.500Z,52.97
2022-12-14T03:30:58.064Z,50.93
2022-12-14T03:33:21.237Z,53.80
2022-12-14T03:36:34.622Z,47.87
2022-12-14T03:39:04.543Z,48.27
2022-12-14T03:42:42.839Z,51.27
2022-12-14T03:48:38.444Z,55.33
2022-12-14T04:00:11.115Z,59.53
2022-12-14T04:03:07.400Z,51.93
2022-12-14T04:09:01.463Z,45.93
2022-12-14T04:11:55.119Z,49.83
2022-12-14T04:14:47.130Z,59.57
2022-12-14T04:17:38.691Z,54.83
2022-12-14T04:20:21.071Z,49.50
2022-12-14T04:22:55.506Z,52.43
2022-12-14T04:25:49.466Z,53.13
2022-12-14T04:28:42.305Z,54.27
2022-12-14T04:31:13.239Z,51.87
2022-12-14T04:33:46.885Z,49.70
2022-12-14T04:36:24.400Z,58.50
2022-12-14T04:38:58.905Z,49.17
2022-12-14T04:41:32.696Z,48.00
2022-12-14T04:44:04.452Z,53.10
2022-12-14T04:46:37.568Z,51.07
2022-12-14T04:49:20.914Z,52.57
2022-12-14T04:52:39.690Z,49.67
2022-12-14T04:55:23.263Z,58.30
2022-12-14T04:58:19.955Z,49.00
2022-12-14T05:01:34.464Z,52.60
2022-12-14T05:04:21.802Z,51.57
2022-12-14T05:07:18.319Z,51.57
2022-12-14T05:10:10.354Z,48.33
2022-12-14T05:12:50.264Z,48.07
2022-12-14T05:15:25.121Z,51.37
2022-12-14T05:17:53.021Z,55.83
2022-12-14T05:20:22.545Z,53.30
2022-12-14T05:22:50.182Z,58.13
2022-12-14T05:25:17.682Z,51.40
2022-12-14T05:27:45.049Z,60.77
2022-12-14T05:30:13.042Z,55.43
2022-12-14T05:32:40.476Z,50.40
2022-12-14T05:35:08.920Z,56.63
2022-12-14T05:37:36.074Z,55.73
2022-12-14T05:40:03.229Z,56.83
2022-12-14T05:42:31.458Z,64.33
2022-12-14T05:44:58.668Z,52.83
2022-12-14T05:47:27.285Z,61.37
2022-12-14T05:49:54.356Z,64.73
2022-12-14T05:52:24.245Z,67.20
2022-12-14T05:54:51.332Z,53.27
2022-12-14T05:57:18.480Z,54.40
2022-12-14T05:59:45.566Z,59.33
2022-12-14T06:02:12.792Z,53.53
2022-12-14T06:04:40.024Z,55.40
2022-12-14T06:07:10.157Z,54.83
2022-12-14T06:09:37.256Z,51.40
2022-12-14T06:12:04.594Z,57.33
2022-12-14T06:14:31.654Z,54.37
2022-12-14T06:16:58.744Z,49.70
2022-12-14T06:19:25.815Z,54.17
2022-12-14T06:21:53.048Z,49.97
2022-12-14T06:24:20.078Z,54.77
2022-12-14T06:26:47.190Z,52.57
2022-12-14T06:29:16.735Z,54.80
2022-12-14T06:31:44.146Z,53.97
2022-12-14T06:34:11.795Z,54.47
2022-12-14T06:36:41.586Z,59.63
2022-12-14T06:39:14.504Z,64.13
2022-12-14T06:41:41.980Z,59.20
2022-12-14T06:44:12.557Z,66.50
2022-12-14T06:46:40.024Z,55.50
2022-12-14T06:49:08.027Z,57.43
2022-12-14T06:51:41.560Z,51.53
2022-12-14T06:54:11.456Z,51.37
2022-12-14T06:56:38.893Z,59.17
2022-12-14T06:59:06.382Z,54.07
2022-12-14T07:01:33.658Z,54.90
2022-12-14T07:04:00.932Z,54.20
2022-12-14T07:06:32.949Z,54.83
2022-12-14T07:09:00.865Z,53.13
2022-12-14T07:11:29.374Z,58.93
2022-12-14T07:13:57.017Z,59.63
2022-12-14T07:16:26.353Z,63.50
2022-12-14T07:18:54.895Z,64.63
2022-12-14T07:21:23.071Z,55.63
2022-12-14T07:23:52.602Z,64.43
2022-12-14T07:26:27.660Z,66.30
2022-12-14T07:28:55.187Z,64.87
2022-12-14T07:31:25.742Z,61.67
2022-12-14T07:33:58.815Z,59.37
2022-12-14T07:36:28.194Z,56.27
2022-12-14T07:38:56.046Z,65.73
2022-12-14T07:41:25.938Z,62.47
2022-12-14T07:43:55.299Z,66.37
2022-12-14T07:46:24.732Z,75.67
2022-12-14T07:48:54.629Z,66.30
2022-12-14T07:51:31.226Z,80.20
2022-12-14T07:53:59.455Z,77.00
2022-12-14T07:56:29.423Z,63.97
2022-12-14T07:58:58.187Z,63.47
2022-12-14T08:01:28.607Z,61.13
2022-12-14T08:04:09.729Z,68.77
2022-12-14T08:06:38.211Z,74.93
2022-12-14T08:09:06.969Z,63.40
2022-12-14T08:11:34.887Z,69.73
2022-12-14T08:14:04.665Z,71.53
2022-12-14T08:16:32.603Z,63.37
2022-12-14T08:19:00.933Z,61.83
2022-12-14T08:21:29.027Z,66.13
2022-12-14T08:23:57.318Z,61.80
2022-12-14T08:26:31.542Z,60.43
2022-12-14T08:29:02.334Z,57.77
2022-12-14T08:31:30.141Z,59.37
2022-12-14T08:33:59.604Z,55.83
2022-12-14T08:36:29.637Z,69.57
2022-12-14T08:39:01.969Z,61.07
2022-12-14T08:41:29.774Z,58.90
2022-12-14T08:43:59.483Z,60.37
2022-12-14T08:46:28.943Z,53.50
2022-12-14T08:48:57.168Z,56.63
2022-12-14T08:51:25.640Z,60.83
2022-12-14T08:53:53.654Z,58.43
2022-12-14T08:56:23.943Z,64.40
2022-12-14T08:58:51.225Z,68.07
2022-12-14T09:01:30.289Z,58.87
2022-12-14T09:04:03.639Z,63.33
2022-12-14T09:06:31.260Z,64.40
2022-12-14T09:08:58.566Z,65.87
2022-12-14T09:11:25.709Z,63.27
2022-12-14T09:13:58.261Z,57.23
2022-12-14T09:16:28.829Z,69.00
2022-12-14T09:18:56.155Z,61.77
2022-12-14T09:21:24.172Z,60.57
2022-12-14T09:23:57.318Z,59.10
2022-12-14T09:26:26.714Z,62.27
2022-12-14T09:28:55.843Z,61.07
2022-12-14T09:31:25.560Z,70.40
2022-12-14T09:33:53.144Z,66.20
2022-12-14T09:36:26.620Z,54.77
2022-12-14T09:38:58.065Z,59.43
2022-12-14T09:42:00.583Z,49.33
2022-12-14T09:45:10.130Z,68.77
2022-12-14T09:48:07.465Z,52.37
2022-12-14T09:50:35.108Z,51.17
2022-12-14T09:53:07.427Z,60.13
2022-12-14T09:55:42.622Z,61.93
2022-12-14T09:58:29.039Z,57.77
2022-12-14T10:01:37.006Z,66.97
2022-12-14T10:04:50.434Z,66.97
2022-12-14T10:07:55.186Z,57.83
2022-12-14T10:10:43.578Z,61.30
2022-12-14T10:13:46.162Z,63.47
2022-12-14T10:16:25.343Z,69.30
2022-12-14T10:19:43.778Z,68.13
2022-12-14T10:22:24.698Z,57.50
2022-12-14T10:25:06.475Z,60.63
2022-12-14T10:30:20.547Z,58.40
2022-12-14T10:32:56.417Z,54.93
2022-12-14T10:35:43.725Z,53.73
2022-12-14T10:38:32.330Z,57.70
2022-12-14T10:41:07.198Z,55.93
2022-12-14T10:44:27.358Z,64.50
2022-12-14T10:47:30.255Z,58.10
2022-12-14T10:50:34.434Z,65.03
2022-12-14T10:53:05.948Z,63.43
2022-12-14T10:55:39.243Z,56.90
2022-12-14T10:58:07.096Z,58.57
2022-12-14T11:00:38.762Z,62.43
2022-12-14T11:03:15.667Z,70.27
2022-12-14T11:06:10.007Z,64.00
2022-12-14T11:08:48.019Z,57.57
2022-12-14T11:11:24.379Z,56.03
2022-12-14T11:14:16.160Z,65.03
2022-12-14T11:16:43.410Z,66.37
2022-12-14T11:19:19.183Z,63.17
2022-12-14T11:21:50.084Z,61.17
2022-12-14T11:24:28.544Z,61.87
2022-12-14T11:27:01.171Z,62.47
2022-12-14T11:29:32.985Z,68.17
2022-12-14T11:32:00.804Z,63.27
2022-12-14T11:34:39.160Z,69.23
2022-12-14T11:37:26.277Z,66.20
2022-12-14T11:40:00.047Z,69.10
2022-12-14T11:42:28.308Z,70.27
2022-12-14T11:44:57.351Z,64.13
2022-12-14T11:47:29.331Z,67.77
2022-12-14T11:49:58.009Z,68.47
2022-12-14T11:52:40.005Z,68.77
2022-12-14T11:55:23.052Z,68.47
2022-12-14T11:57:57.458Z,66.30
2022-12-14T12:00:46.813Z,83.10
2022-12-14T12:03:36.792Z,76.87
2022-12-14T12:06:07.299Z,70.37
2022-12-14T12:08:41.009Z,77.33
2022-12-14T12:11:20.962Z,77.70
2022-12-14T12:13:52.524Z,78.20
2022-12-14T12:16:26.922Z,73.97
2022-12-14T12:19:20.178Z,75.37
2022-12-14T12:21:48.345Z,71.63
2022-12-14T12:24:30.615Z,80.07
2022-12-14T12:27:01.180Z,79.70
2022-12-14T12:29:57.693Z,68.63
2022-12-14T12:32:41.145Z,72.33
2022-12-14T12:35:17.616Z,78.27
2022-12-14T12:37:58.891Z,66.83
2022-12-14T12:40:57.617Z,67.77
2022-12-14T12:43:38.197Z,82.97
2022-12-14T12:46:13.742Z,71.93
2022-12-14T12:49:04.201Z,76.27
2022-12-14T12:51:39.620Z,76.60
2022-12-14T12:54:12.272Z,67.07
2022-12-14T12:56:56.074Z,152.97
2022-12-14T12:59:48.668Z,74.93
2022-12-14T13:02:33.480Z,81.53
2022-12-14T13:05:37.308Z,77.67
2022-12-14T13:08:02.337Z,88.53
2022-12-14T13:10:33.183Z,87.60
2022-12-14T13:13:27.367Z,83.17
2022-12-14T13:16:13.466Z,93.80
2022-12-14T13:19:02.060Z,78.33
2022-12-14T13:21:37.725Z,94.53
2022-12-14T13:24:06.811Z,85.80
2022-12-14T13:27:17.152Z,96.97
2022-12-14T13:30:23.799Z,90.77
2022-12-14T13:33:27.705Z,83.60
2022-12-14T13:36:45.808Z,102.17
2022-12-14T13:39:52.018Z,121.90
2022-12-14T13:42:52.059Z,91.90
2022-12-14T13:45:24.032Z,108.23
2022-12-14T13:47:55.485Z,83.37
2022-12-14T13:50:52.898Z,98.27
2022-12-14T13:53:42.461Z,98.13
2022-12-14T13:56:18.317Z,89.37
2022-12-14T13:58:48.706Z,99.57
2022-12-14T14:02:06.917Z,120.73
2022-12-14T14:04:35.867Z,82.17
2022-12-14T14:07:39.089Z,93.73
2022-12-14T14:10:26.900Z,87.00
2022-12-14T14:12:54.374Z,113.97
2022-12-14T14:15:51.958Z,101.30
2022-12-14T14:18:30.739Z,92.13
2022-12-14T14:22:22.186Z,161.00
2022-12-14T14:25:38.252Z,99.00
2022-12-14T14:28:09.962Z,100.07
2022-12-14T14:30:42.230Z,107.33
2022-12-14T14:33:55.017Z,104.17
2022-12-14T14:36:33.432Z,137.27
2022-12-14T14:39:02.981Z,111.53
2022-12-14T14:41:52.552Z,96.33
2022-12-14T14:44:42.010Z,97.40
2022-12-14T14:47:37.009Z,97.30
2022-12-14T14:50:37.215Z,88.90
2022-12-14T14:53:25.300Z,84.57
2022-12-14T14:56:26.172Z,139.00
2022-12-14T14:59:39.367Z,104.87
2022-12-14T15:02:33.797Z,162.57
2022-12-14T15:07:49.907Z,115.90
2022-12-14T15:10:38.451Z,103.90
2022-12-14T15:13:32.925Z,99.03
2022-12-14T15:16:00.352Z,83.70
2022-12-14T15:18:32.214Z,86.03
2022-12-14T15:21:13.732Z,109.37
2022-12-14T15:23:49.596Z,83.10
2022-12-14T15:26:28.926Z,74.50
2022-12-14T15:29:00.493Z,91.43
2022-12-14T15:31:39.957Z,72.97
2022-12-14T15:34:07.915Z,86.23
2022-12-14T15:36:42.272Z,101.67
2022-12-14T15:39:40.199Z,93.90
2022-12-14T15:42:13.983Z,96.50
2022-12-14T15:44:50.150Z,91.23
2022-12-14T15:47:32.385Z,89.30
2022-12-14T15:50:27.526Z,94.03
2022-12-14T15:53:04.312Z,122.67
2022-12-14T15:55:41.759Z,99.20
2022-12-14T15:58:28.301Z,77.83
2022-12-14T16:00:59.248Z,105.17
2022-12-14T16:03:38.116Z,71.53
2022-12-14T16:06:06.404Z,101.47
2022-12-14T16:08:36.755Z,94.23
2022-12-14T16:11:08.426Z,133.80
2022-12-14T16:13:41.867Z,138.03
2022-12-14T16:16:13.570Z,123.23
2022-12-14T16:18:51.267Z,95.33
2022-12-14T16:21:35.645Z,83.53
2022-12-14T16:24:24.068Z,64.07
2022-12-14T16:27:00.141Z,54.83
2022-12-14T16:29:30.338Z,37.07
2022-12-14T16:32:10.371Z,70.20
2022-12-14T16:34:37.552Z,76.10
2022-12-14T16:37:31.445Z,61.90
2022-12-14T16:39:53.373Z,45.47
2022-12-14T16:42:22.835Z,82.30
2022-12-14T16:44:54.081Z,62.63
2022-12-14T16:48:02.928Z,60.10
2022-12-14T16:53:23.272Z,47.73
2022-12-14T16:56:14.067Z,45.67
2022-12-14T16:58:41.294Z,29.60
2022-12-14T17:01:09.555Z,29.77
2022-12-14T17:03:38.526Z,32.63
2022-12-14T17:06:07.538Z,29.33
2022-12-14T17:08:34.985Z,83.67
2022-12-14T17:11:02.438Z,57.23
2022-12-14T17:13:30.256Z,77.53
2022-12-14T17:16:07.272Z,155.30
2022-12-14T17:18:41.231Z,109.83
2022-12-14T17:21:15.806Z,161.17
2022-12-14T17:23:44.660Z,225.00
2022-12-14T17:26:32.378Z,122.73
2022-12-14T17:28:59.570Z,135.77
2022-12-14T17:31:27.479Z,185.17
2022-12-14T17:33:57.575Z,74.20
2022-12-14T17:36:25.433Z,91.33
2022-12-14T17:38:52.637Z,107.23
2022-12-14T17:41:26.394Z,98.33
2022-12-14T17:43:57.732Z,121.77
2022-12-14T17:46:25.700Z,112.43
2022-12-14T17:48:53.480Z,67.57
2022-12-14T17:51:26.729Z,107.53
2022-12-14T17:53:56.237Z,121.90
2022-12-14T17:56:23.447Z,181.23
2022-12-14T17:58:51.518Z,102.27
2022-12-14T18:01:28.302Z,94.40
2022-12-14T18:03:55.768Z,65.07
2022-12-14T18:06:23.140Z,63.43
2022-12-14T18:08:50.351Z,58.70
2022-12-14T18:11:23.479Z,62.53
2022-12-14T18:13:51.905Z,41.90
2022-12-14T18:16:22.258Z,41.47
2022-12-14T18:18:49.570Z,40.27
2022-12-14T18:21:25.396Z,59.80
2022-12-14T18:23:53.116Z,58.83
2022-12-14T18:26:22.405Z,46.13
2022-12-14T18:28:51.483Z,50.70
2022-12-14T18:31:33.041Z,64.00
2022-12-14T18:34:00.742Z,70.53
2022-12-14T18:36:28.154Z,51.17
2022-12-14T18:38:55.876Z,67.00
2022-12-14T18:41:25.704Z,79.17
2022-12-14T18:43:54.371Z,50.33
2022-12-14T18:46:21.920Z,57.77
2022-12-14T18:48:49.865Z,86.53
2022-12-14T18:51:23.940Z,106.40
2022-12-14T18:53:52.316Z,60.17
2022-12-14T18:56:22.130Z,51.57
2022-12-14T18:58:49.938Z,47.23
2022-12-14T19:01:19.742Z,35.87
2022-12-14T19:03:47.541Z,31.50
2022-12-14T19:06:43.663Z,31.37
2022-12-14T19:09:05.098Z,29.07
2022-12-14T19:11:39.061Z,51.90
2022-12-14T19:14:07.016Z,46.03
2022-12-14T19:16:34.370Z,30.03
2022-12-14T19:19:01.676Z,37.37
2022-12-14T19:21:29.818Z,32.57
2022-12-14T19:23:59.479Z,31.93
2022-12-14T19:26:28.688Z,57.00
2022-12-14T19:28:56.255Z,48.47
2022-12-14T19:31:23.398Z,42.13
2022-12-14T19:33:50.599Z,52.63
2022-12-14T19:36:17.737Z,67.87
2022-12-14T19:38:45.025Z,53.57
2022-12-14T19:41:20.252Z,50.53
2022-12-14T19:43:47.821Z,42.73
2022-12-14T19:46:16.492Z,66.23
2022-12-14T19:48:44.748Z,71.13
2022-12-14T19:51:13.595Z,83.27
2022-12-14T19:53:42.942Z,67.00
2022-12-14T19:56:10.367Z,91.03
2022-12-14T19:58:47.970Z,117.03
2022-12-14T20:01:17.635Z,65.80
2022-12-14T20:03:44.942Z,64.13
2022-12-14T20:06:12.218Z,37.63
2022-12-14T20:08:39.369Z,35.83
2022-12-14T20:11:08.535Z,35.70
2022-12-14T20:13:35.703Z,48.70
2022-12-14T20:16:03.045Z,71.67
2022-12-14T20:18:31.740Z,61.67
2022-12-14T20:21:07.658Z,80.27
2022-12-14T20:23:36.551Z,89.33
2022-12-14T20:26:06.324Z,66.77
2022-12-14T20:28:33.624Z,67.20
2022-12-14T20:31:01.507Z,111.73
2022-12-14T20:33:30.851Z,114.73
2022-12-14T20:35:58.593Z,77.27
2022-12-14T20:38:25.870Z,79.57
2022-12-14T20:40:53.720Z,47.60
2022-12-14T20:43:21.273Z,106.10
2022-12-14T20:45:48.318Z,64.13
2022-12-14T20:48:15.491Z,63.57
2022-12-14T20:50:44.207Z,75.43
2022-12-14T20:53:17.570Z,88.50
2022-12-14T20:55:44.736Z,60.13
2022-12-14T20:58:11.934Z,61.80
2022-12-14T21:00:39.168Z,40.70
2022-12-14T21:03:06.475Z,47.70
2022-12-14T21:05:33.735Z,55.80
2022-12-14T21:08:00.936Z,52.60
2022-12-14T21:10:28.099Z,54.47
2022-12-14T21:12:55.432Z,42.60
2022-12-14T21:15:22.520Z,36.83
2022-12-14T21:17:49.824Z,33.17
2022-12-14T21:20:17.870Z,123.60
2022-12-14T21:22:44.944Z,98.20
2022-12-14T21:25:12.036Z,125.90
2022-12-14T21:27:39.701Z,67.30
2022-12-14T21:30:09.366Z,61.70
2022-12-14T21:32:37.747Z,102.93
2022-12-14T21:35:05.595Z,91.93
2022-12-14T21:37:32.699Z,66.40
2022-12-14T21:40:03.047Z,58.67
2022-12-14T21:42:30.266Z,36.73
2022-12-14T21:44:57.896Z,54.80
2022-12-14T21:47:29.658Z,48.90
2022-12-14T21:49:57.533Z,69.83
2022-12-14T21:52:26.792Z,55.53
2022-12-14T21:54:54.008Z,46.07
2022-12-14T21:57:43.049Z,68.37
2022-12-14T22:00:18.386Z,40.47
2022-12-14T22:02:45.687Z,72.63
2022-12-14T22:05:13.282Z,61.80
2022-12-14T22:07:40.452Z,123.37
2022-12-14T22:10:08.123Z,59.23
2022-12-14T22:12:35.436Z,50.93
2022-12-14T22:15:02.552Z,51.20
2022-12-14T22:17:29.661Z,54.13
2022-12-14T22:19:56.751Z,39.10
2022-12-14T22:22:23.821Z,33.20
2022-12-14T22:24:51.487Z,32.40
2022-12-14T22:27:19.359Z,22.57
2022-12-14T22:29:46.711Z,50.27
2022-12-14T22:32:14.895Z,20.77
2022-12-14T22:34:42.234Z,17.13
2022-12-14T22:37:09.384Z,16.13
2022-12-14T22:39:36.474Z,19.27
2022-12-14T22:42:03.976Z,15.67
2022-12-14T22:44:31.272Z,13.03
2022-12-14T22:46:58.287Z,11.97
2022-12-14T22:49:25.357Z,16.80
2022-12-14T22:51:52.426Z,11.53
2022-12-14T22:54:24.974Z,15.63
2022-12-14T22:57:07.343Z,13.67
2022-12-14T22:59:56.889Z,11.43
2022-12-14T23:02:24.212Z,11.03
2022-12-14T23:04:51.520Z,10.03
2022-12-14T23:07:18.714Z,11.60
2022-12-14T23:10:04.772Z,10.47
2022-12-14T23:12:50.231Z,11.50
2022-12-14T23:15:35.957Z,10.53
2022-12-14T23:18:23.848Z,7.90
2022-12-14T23:21:10.221Z,10.00
2022-12-14T23:24:00.784Z,9.20
2022-12-14T23:26:46.706Z,12.03
2022-12-14T23:29:32.554Z,9.87
2022-12-14T23:32:18.052Z,11.07
2022-12-14T23:35:03.744Z,9.87
2022-12-14T23:37:49.235Z,11.70
2022-12-14T23:40:34.827Z,9.67
2022-12-14T23:43:36.611Z,8.87
2022-12-14T23:46:24.532Z,9.60
2022-12-14T23:49:15.375Z,8.97
2022-12-14T23:52:02.091Z,8.80
2022-12-14T23:54:47.894Z,9.87
2022-12-14T23:57:33.496Z,8.83
